createdAt,value
2022-12-08T00:02:07.922Z,-9.47
2022-12-08T00:04:56.099Z,-9.54
2022-12-08T00:07:38.490Z,-9.54
2022-12-08T00:10:39.654Z,-9.51
2022-12-08T00:12:56.041Z,-9.96
2022-12-08T00:15:23.945Z,-9.38
2022-12-08T00:17:53.185Z,-9.67
2022-12-08T00:20:21.198Z,-10.18
2022-12-08T00:22:49.193Z,-9.77
2022-12-08T00:25:17.194Z,-9.69
2022-12-08T00:27:45.143Z,-9.82
2022-12-08T00:30:13.824Z,-9.69
2022-12-08T00:32:41.682Z,-9.80
2022-12-08T00:35:11.021Z,-9.73
2022-12-08T00:37:39.360Z,-9.64
2022-12-08T00:40:08.597Z,-9.69
2022-12-08T00:42:36.427Z,-10.29
2022-12-08T00:45:04.783Z,-9.65
2022-12-08T00:47:32.605Z,-10.23
2022-12-08T00:50:00.526Z,-10.05
2022-12-08T00:52:29.998Z,-10.03
2022-12-08T00:54:57.901Z,-9.93
2022-12-08T00:57:25.769Z,-9.93
2022-12-08T00:59:53.963Z,-10.23
2022-12-08T01:02:21.793Z,-10.16
2022-12-08T01:04:49.618Z,-9.82
2022-12-08T01:07:17.861Z,-10.16
2022-12-08T01:09:47.067Z,-9.69
2022-12-08T01:12:14.930Z,-9.92
2022-12-08T01:14:43.232Z,-10.14
2022-12-08T01:17:11.185Z,-9.92
2022-12-08T01:19:39.141Z,-10.04
2022-12-08T01:22:07.284Z,-10.21
2022-12-08T01:24:35.161Z,-10.08
2022-12-08T01:27:04.353Z,-10.40
2022-12-08T01:29:32.540Z,-10.12
2022-12-08T01:32:00.363Z,-9.88
2022-12-08T01:34:28.197Z,-10.24
2022-12-08T01:36:56.281Z,-10.00
2022-12-08T01:39:24.109Z,-9.80
2022-12-08T01:41:51.961Z,-9.28
2022-12-08T01:44:54.325Z,-9.06
2022-12-08T01:47:23.991Z,-9.26
2022-12-08T01:49:51.877Z,-9.62
2022-12-08T01:52:24.848Z,-9.58
2022-12-08T01:54:57.897Z,-9.31
2022-12-08T01:57:29.601Z,-9.40
2022-12-08T02:00:03.799Z,-9.35
2022-12-08T02:02:41.504Z,-9.14
2022-12-08T02:05:10.714Z,-9.87
2022-12-08T02:07:39.168Z,-9.50
2022-12-08T02:10:08.333Z,-9.38
2022-12-08T02:12:36.157Z,-9.27
2022-12-08T02:15:06.671Z,-9.40
2022-12-08T02:17:48.090Z,-9.60
2022-12-08T02:20:30.541Z,-10.07
2022-12-08T02:23:09.170Z,-9.89
2022-12-08T02:25:48.310Z,-9.50
2022-12-08T02:28:43.156Z,-9.64
2022-12-08T02:31:28.137Z,-9.70
2022-12-08T02:34:17.348Z,-9.47
2022-12-08T02:36:52.806Z,-9.40
2022-12-08T02:39:30.027Z,-9.77
2022-12-08T02:42:08.139Z,-9.90
2022-12-08T02:44:40.805Z,-9.73
2022-12-08T02:47:12.969Z,-10.01
2022-12-08T02:49:42.598Z,-10.02
2022-12-08T02:52:41.447Z,-9.89
2022-12-08T02:55:15.464Z,-9.37
2022-12-08T02:57:57.979Z,-9.48
2022-12-08T03:00:28.545Z,-9.60
2022-12-08T03:03:10.624Z,-10.48
2022-12-08T03:05:55.851Z,-10.08
2022-12-08T03:08:29.558Z,-10.48
2022-12-08T03:11:04.708Z,-10.43
2022-12-08T03:13:37.377Z,-9.86
2022-12-08T03:16:09.366Z,-9.96
2022-12-08T03:18:43.060Z,-10.04
2022-12-08T03:21:15.258Z,-9.99
2022-12-08T03:23:47.527Z,-10.82
2022-12-08T03:26:20.036Z,-10.22
2022-12-08T03:28:48.209Z,-10.32
2022-12-08T03:31:19.416Z,-10.52
2022-12-08T03:33:53.243Z,-10.31
2022-12-08T03:36:23.576Z,-10.77
2022-12-08T03:38:52.855Z,-10.44
2022-12-08T03:41:22.507Z,-10.89
2022-12-08T03:43:51.800Z,-10.69
2022-12-08T03:48:47.794Z,-10.54
2022-12-08T03:51:16.468Z,-11.20
2022-12-08T03:53:46.095Z,-10.68
2022-12-08T03:56:17.834Z,-10.92
2022-12-08T03:58:45.952Z,-10.70
2022-12-08T04:01:14.024Z,-10.77
2022-12-08T04:03:42.104Z,-10.79
2022-12-08T04:06:10.015Z,-10.59
2022-12-08T04:08:37.889Z,-10.85
2022-12-08T04:11:07.726Z,-10.65
2022-12-08T04:13:36.498Z,-11.12
2022-12-08T04:16:05.359Z,-10.96
2022-12-08T04:18:33.769Z,-10.77
2022-12-08T04:21:02.025Z,-10.85
2022-12-08T04:23:29.960Z,-10.88
2022-12-08T04:25:58.113Z,-10.68
2022-12-08T04:28:29.398Z,-10.60
2022-12-08T04:30:57.325Z,-10.64
2022-12-08T04:33:25.497Z,-11.38
2022-12-08T04:35:53.368Z,-10.56
2022-12-08T04:38:21.241Z,-10.61
2022-12-08T04:40:49.409Z,-10.69
2022-12-08T04:43:17.945Z,-11.19
2022-12-08T04:45:48.259Z,-10.70
2022-12-08T04:48:16.076Z,-10.57
2022-12-08T04:50:45.792Z,-10.68
2022-12-08T04:53:14.844Z,-10.70
2022-12-08T04:55:44.079Z,-10.84
2022-12-08T04:58:14.387Z,-10.92
2022-12-08T05:00:42.423Z,-10.84
2022-12-08T05:03:11.860Z,-11.43
2022-12-08T05:05:39.933Z,-10.88
2022-12-08T05:08:08.050Z,-11.57
2022-12-08T05:10:40.444Z,-11.17
2022-12-08T05:13:08.548Z,-11.18
2022-12-08T05:15:36.404Z,-11.61
2022-12-08T05:18:07.453Z,-11.69
2022-12-08T05:20:37.178Z,-11.50
2022-12-08T05:23:05.106Z,-10.80
2022-12-08T05:25:33.150Z,-10.81
2022-12-08T05:28:32.820Z,-11.31
2022-12-08T05:31:00.294Z,-10.81
2022-12-08T05:33:28.506Z,-10.76
2022-12-08T05:35:57.751Z,-10.85
2022-12-08T05:38:25.710Z,-11.45
2022-12-08T05:40:53.764Z,-11.17
2022-12-08T05:43:21.597Z,-10.98
2022-12-08T05:45:49.789Z,-10.93
2022-12-08T05:48:18.097Z,-11.30
2022-12-08T05:50:48.548Z,-10.99
2022-12-08T05:53:19.019Z,-10.87
2022-12-08T05:55:47.138Z,-10.94
2022-12-08T05:58:16.597Z,-11.19
2022-12-08T06:00:44.921Z,-10.76
2022-12-08T06:03:21.595Z,-11.15
2022-12-08T06:05:49.951Z,-11.20
2022-12-08T06:08:19.323Z,-10.72
2022-12-08T06:10:47.834Z,-10.39
2022-12-08T06:13:16.087Z,-10.74
2022-12-08T06:16:08.001Z,-10.27
2022-12-08T06:18:36.114Z,-10.37
2022-12-08T06:21:05.460Z,-10.63
2022-12-08T06:23:34.734Z,-10.75
2022-12-08T06:26:03.494Z,-10.97
2022-12-08T06:28:31.438Z,-10.89
2022-12-08T06:30:59.929Z,-10.93
2022-12-08T06:33:28.257Z,-10.95
2022-12-08T06:35:56.129Z,-11.22
2022-12-08T06:38:24.009Z,-11.55
2022-12-08T06:40:57.376Z,-11.00
2022-12-08T06:43:26.383Z,-11.08
2022-12-08T06:45:54.444Z,-11.49
2022-12-08T06:48:22.426Z,-10.95
2022-12-08T06:50:50.237Z,-11.05
2022-12-08T06:53:18.362Z,-11.30
2022-12-08T06:56:02.052Z,-10.96
2022-12-08T06:58:31.474Z,-11.10
2022-12-08T07:01:05.743Z,-10.85
2022-12-08T07:03:33.805Z,-11.01
2022-12-08T07:06:04.013Z,-11.36
2022-12-08T07:08:33.152Z,-11.10
2022-12-08T07:11:01.251Z,-11.41
2022-12-08T07:13:29.064Z,-10.98
2022-12-08T07:15:58.424Z,-10.84
2022-12-08T07:18:26.406Z,-10.96
2022-12-08T07:20:54.225Z,-11.18
2022-12-08T07:23:22.190Z,-11.18
2022-12-08T07:25:50.120Z,-11.38
2022-12-08T07:28:17.975Z,-11.35
2022-12-08T07:30:45.993Z,-10.89
2022-12-08T07:33:15.390Z,-10.91
2022-12-08T07:35:48.975Z,-10.94
2022-12-08T07:38:17.393Z,-11.06
2022-12-08T07:40:45.270Z,-11.24
2022-12-08T07:43:13.087Z,-11.06
2022-12-08T07:45:41.761Z,-11.13
2022-12-08T07:48:09.859Z,-11.25
2022-12-08T07:50:39.634Z,-11.17
2022-12-08T07:53:08.608Z,-11.13
2022-12-08T07:55:40.043Z,-10.97
2022-12-08T07:58:07.875Z,-11.07
2022-12-08T08:00:36.326Z,-11.18
2022-12-08T08:03:04.576Z,-10.92
2022-12-08T08:05:32.603Z,-10.89
2022-12-08T08:08:02.165Z,-11.53
2022-12-08T08:10:30.160Z,-11.21
2022-12-08T08:12:59.955Z,-11.56
2022-12-08T08:15:28.274Z,-10.87
2022-12-08T08:17:56.140Z,-11.64
2022-12-08T08:20:24.132Z,-11.13
2022-12-08T08:22:52.841Z,-10.97
2022-12-08T08:25:23.520Z,-11.25
2022-12-08T08:27:51.840Z,-10.74
2022-12-08T08:30:20.929Z,-10.90
2022-12-08T08:32:49.340Z,-10.88
2022-12-08T08:35:17.825Z,-10.80
2022-12-08T08:37:49.248Z,-10.59
2022-12-08T08:40:17.760Z,-10.77
2022-12-08T08:42:47.298Z,-10.74
2022-12-08T08:45:15.161Z,-10.67
2022-12-08T08:47:42.974Z,-10.59
2022-12-08T08:50:11.370Z,-10.87
2022-12-08T08:52:39.608Z,-11.01
2022-12-08T08:55:08.083Z,-10.56
2022-12-08T08:57:36.482Z,-10.46
2022-12-08T09:00:07.839Z,-10.54
2022-12-08T09:02:35.942Z,-10.52
2022-12-08T09:05:04.276Z,-10.91
2022-12-08T09:07:32.410Z,-10.80
2022-12-08T09:10:02.073Z,-10.60
2022-12-08T09:12:30.637Z,-10.57
2022-12-08T09:14:58.534Z,-10.71
2022-12-08T09:17:27.765Z,-10.15
2022-12-08T09:19:55.905Z,-9.91
2022-12-08T09:22:23.781Z,-10.52
2022-12-08T09:24:51.735Z,-10.39
2022-12-08T09:27:19.884Z,-10.72
2022-12-08T09:29:47.800Z,-10.15
2022-12-08T09:32:15.675Z,-10.41
2022-12-08T09:34:50.494Z,-10.14
2022-12-08T09:37:19.795Z,-10.26
2022-12-08T09:39:48.149Z,-10.09
2022-12-08T09:42:34.793Z,-10.52
2022-12-08T09:45:10.399Z,-9.82
2022-12-08T09:47:42.041Z,-9.74
2022-12-08T09:50:19.052Z,-9.50
2022-12-08T09:52:54.202Z,-9.73
2022-12-08T09:55:34.561Z,-9.18
2022-12-08T09:58:06.090Z,-9.51
2022-12-08T10:00:35.355Z,-9.34
2022-12-08T10:03:03.384Z,-9.43
2022-12-08T10:05:38.875Z,-9.62
2022-12-08T10:08:13.329Z,-9.23
2022-12-08T10:10:48.354Z,-9.00
2022-12-08T10:13:23.045Z,-9.05
2022-12-08T10:15:59.897Z,-9.14
2022-12-08T10:18:30.651Z,-8.95
2022-12-08T10:21:11.974Z,-9.72
2022-12-08T10:23:43.210Z,-9.42
2022-12-08T10:26:14.824Z,-9.12
2022-12-08T10:28:45.480Z,-9.09
2022-12-08T10:31:18.499Z,-9.20
2022-12-08T10:33:48.829Z,-9.35
2022-12-08T10:36:17.873Z,-8.78
2022-12-08T10:38:45.869Z,-8.88
2022-12-08T10:41:18.035Z,-9.03
2022-12-08T10:43:49.920Z,-8.62
2022-12-08T10:46:23.052Z,-8.89
2022-12-08T10:48:53.957Z,-8.43
2022-12-08T10:51:36.346Z,-8.83
2022-12-08T10:54:06.311Z,-8.77
2022-12-08T10:56:34.494Z,-8.64
2022-12-08T10:59:15.914Z,-8.34
2022-12-08T11:01:48.132Z,-8.53
2022-12-08T11:04:19.732Z,-8.28
2022-12-08T11:06:51.245Z,-8.23
2022-12-08T11:09:32.338Z,-8.13
2022-12-08T11:12:01.702Z,-7.97
2022-12-08T11:14:31.887Z,-8.27
2022-12-08T11:17:07.119Z,-8.10
2022-12-08T11:19:38.711Z,-8.19
2022-12-08T11:22:22.623Z,-7.86
2022-12-08T11:24:58.329Z,-7.68
2022-12-08T11:27:26.501Z,-7.92
2022-12-08T11:29:54.404Z,-7.62
2022-12-08T11:32:22.669Z,-8.14
2022-12-08T11:34:54.573Z,-7.76
2022-12-08T11:37:34.475Z,-7.53
2022-12-08T11:40:08.322Z,-8.04
2022-12-08T11:42:47.005Z,-7.98
2022-12-08T11:45:22.025Z,-7.39
2022-12-08T11:47:57.356Z,-7.58
2022-12-08T11:50:30.726Z,-7.34
2022-12-08T11:53:02.724Z,-7.67
2022-12-08T11:55:39.407Z,-7.53
2022-12-08T11:58:19.142Z,-7.41
2022-12-08T12:00:47.654Z,-7.75
2022-12-08T12:03:29.730Z,-7.34
2022-12-08T12:06:38.174Z,-7.37
2022-12-08T12:09:12.871Z,-7.31
2022-12-08T12:12:09.074Z,-7.68
2022-12-08T12:15:03.313Z,-7.55
2022-12-08T12:17:43.732Z,-7.48
2022-12-08T12:20:15.332Z,-7.53
2022-12-08T12:22:46.390Z,-7.37
2022-12-08T12:25:21.362Z,-7.47
2022-12-08T12:27:56.800Z,-7.85
2022-12-08T12:30:27.182Z,-7.38
2022-12-08T12:32:58.021Z,-7.22
2022-12-08T12:35:34.514Z,-7.56
2022-12-08T12:38:26.193Z,-7.31
2022-12-08T12:41:00.934Z,-7.58
2022-12-08T12:43:34.081Z,-7.50
2022-12-08T12:46:39.645Z,-7.77
2022-12-08T12:49:40.898Z,-7.66
2022-12-08T12:52:53.330Z,-7.46
2022-12-08T12:55:30.247Z,-7.61
2022-12-08T12:58:00.441Z,-8.12
2022-12-08T13:00:29.073Z,-7.53
2022-12-08T13:02:59.000Z,-7.59
2022-12-08T13:05:28.879Z,-7.21
2022-12-08T13:08:00.432Z,-7.55
2022-12-08T13:10:32.708Z,-7.95
2022-12-08T13:13:08.868Z,-7.48
2022-12-08T13:15:39.133Z,-7.86
2022-12-08T13:18:08.645Z,-7.41
2022-12-08T13:20:43.881Z,-7.95
2022-12-08T13:23:28.823Z,-7.62
2022-12-08T13:26:20.735Z,-7.59
2022-12-08T13:29:19.081Z,-7.60
2022-12-08T13:31:51.467Z,-8.11
2022-12-08T13:34:31.119Z,-8.35
2022-12-08T13:37:09.964Z,-8.65
2022-12-08T13:39:44.440Z,-8.47
2022-12-08T13:42:22.494Z,-8.35
2022-12-08T13:45:24.149Z,-8.54
2022-12-08T13:51:10.491Z,-8.49
2022-12-08T13:59:30.415Z,-8.71
2022-12-08T14:02:03.230Z,-8.71
2022-12-08T14:04:47.861Z,-8.61
2022-12-08T14:07:19.382Z,-7.93
2022-12-08T14:09:47.715Z,-7.86
2022-12-08T14:12:20.813Z,-8.18
2022-12-08T14:15:03.300Z,-8.16
2022-12-08T14:17:35.055Z,-8.18
2022-12-08T14:20:06.591Z,-8.10
2022-12-08T14:22:36.231Z,-8.29
2022-12-08T14:25:06.079Z,-7.94
2022-12-08T14:30:32.506Z,-8.17
2022-12-08T14:33:03.490Z,-8.65
2022-12-08T14:35:32.686Z,-8.15
2022-12-08T14:38:02.924Z,-8.16
2022-12-08T14:40:33.900Z,-8.35
2022-12-08T14:43:15.343Z,-8.18
2022-12-08T14:45:53.217Z,-8.29
2022-12-08T14:48:27.567Z,-8.43
2022-12-08T14:51:01.736Z,-8.40
2022-12-08T14:53:36.802Z,-8.38
2022-12-08T14:56:09.347Z,-8.61
2022-12-08T14:58:37.316Z,-9.00
2022-12-08T15:01:10.496Z,-8.74
2022-12-08T15:03:39.864Z,-8.72
2022-12-08T15:06:09.422Z,-8.91
2022-12-08T15:08:52.967Z,-9.09
2022-12-08T15:11:31.055Z,-9.29
2022-12-08T15:13:59.163Z,-8.69
2022-12-08T15:16:29.649Z,-8.88
2022-12-08T15:19:17.073Z,-8.82
2022-12-08T15:21:46.249Z,-9.63
2022-12-08T15:24:15.709Z,-9.23
2022-12-08T15:26:46.330Z,-9.68
2022-12-08T15:29:20.507Z,-9.37
2022-12-08T15:31:48.783Z,-9.62
2022-12-08T15:34:18.086Z,-9.94
2022-12-08T15:36:46.241Z,-10.04
2022-12-08T15:39:32.603Z,-10.11
2022-12-08T15:42:01.305Z,-10.60
2022-12-08T15:44:29.286Z,-9.97
2022-12-08T15:46:57.534Z,-10.39
2022-12-08T15:49:26.876Z,-10.37
2022-12-08T15:52:04.988Z,-10.13
2022-12-08T15:54:38.976Z,-10.07
2022-12-08T15:57:44.223Z,-10.32
2022-12-08T15:59:55.294Z,-10.13
2022-12-08T16:02:25.130Z,-10.57
2022-12-08T16:07:42.972Z,-10.16
2022-12-08T16:10:17.386Z,-10.27
2022-12-08T16:15:59.406Z,-9.87
2022-12-08T16:18:31.270Z,-9.96
2022-12-08T16:21:17.062Z,-9.90
2022-12-08T16:23:48.409Z,-9.80
2022-12-08T16:29:07.166Z,-9.73
2022-12-08T16:31:36.256Z,-9.60
2022-12-08T16:34:04.143Z,-9.76
2022-12-08T16:36:33.601Z,-10.62
2022-12-08T16:39:01.417Z,-10.33
2022-12-08T16:41:46.735Z,-10.08
2022-12-08T16:44:14.684Z,-10.53
2022-12-08T16:46:42.512Z,-9.81
2022-12-08T16:49:11.006Z,-10.07
2022-12-08T16:51:43.502Z,-10.08
2022-12-08T16:54:12.146Z,-10.09
2022-12-08T16:56:40.194Z,-9.99
2022-12-08T16:59:08.027Z,-9.84
2022-12-08T17:01:36.161Z,-9.89
2022-12-08T17:06:53.777Z,-9.85
2022-12-08T17:09:21.793Z,-10.35
2022-12-08T17:11:49.769Z,-10.13
2022-12-08T17:14:17.792Z,-9.83
2022-12-08T17:16:46.399Z,-9.87
2022-12-08T17:19:15.301Z,-10.04
2022-12-08T17:21:43.378Z,-9.88
2022-12-08T17:24:15.871Z,-10.18
2022-12-08T17:26:46.609Z,-10.20
2022-12-08T17:29:14.525Z,-10.05
2022-12-08T17:31:42.448Z,-10.67
2022-12-08T17:34:11.839Z,-10.30
2022-12-08T17:36:39.752Z,-10.92
2022-12-08T17:39:12.016Z,-10.75
2022-12-08T17:41:44.301Z,-10.55
2022-12-08T17:44:14.105Z,-10.46
2022-12-08T17:46:46.380Z,-10.99
2022-12-08T17:49:21.281Z,-11.07
2022-12-08T17:51:50.085Z,-10.72
2022-12-08T17:54:18.981Z,-10.61
2022-12-08T17:56:48.582Z,-11.42
2022-12-08T17:59:17.057Z,-11.53
2022-12-08T18:01:45.428Z,-11.11
2022-12-08T18:04:14.212Z,-11.01
2022-12-08T18:06:42.145Z,-11.14
2022-12-08T18:09:10.102Z,-10.99
2022-12-08T18:11:38.989Z,-10.38
2022-12-08T18:14:10.553Z,-10.29
2022-12-08T18:16:40.275Z,-10.55
2022-12-08T18:19:09.634Z,-10.61
2022-12-08T18:21:38.211Z,-10.76
2022-12-08T18:24:07.146Z,-10.81
2022-12-08T18:26:35.096Z,-10.43
2022-12-08T18:29:03.123Z,-10.44
2022-12-08T18:31:32.861Z,-10.56
2022-12-08T18:34:00.793Z,-11.03
2022-12-08T18:36:28.637Z,-10.56
2022-12-08T18:38:56.802Z,-10.36
2022-12-08T18:41:26.743Z,-10.29
2022-12-08T18:43:55.217Z,-10.60
2022-12-08T18:46:24.207Z,-10.07
2022-12-08T18:48:54.078Z,-10.18
2022-12-08T18:51:24.005Z,-10.13
2022-12-08T18:53:53.542Z,-10.32
2022-12-08T18:56:24.333Z,-9.92
2022-12-08T18:58:52.365Z,-9.93
2022-12-08T19:01:20.431Z,-9.79
2022-12-08T19:04:05.037Z,-10.09
2022-12-08T19:06:40.381Z,-10.12
2022-12-08T19:09:09.872Z,-9.73
2022-12-08T19:11:37.860Z,-10.06
2022-12-08T19:14:06.213Z,-9.66
2022-12-08T19:16:34.478Z,-9.98
2022-12-08T19:19:02.591Z,-9.53
2022-12-08T19:21:31.095Z,-9.78
2022-12-08T19:24:00.448Z,-9.52
2022-12-08T19:26:29.603Z,-9.67
2022-12-08T19:28:58.679Z,-9.50
2022-12-08T19:31:26.605Z,-9.67
2022-12-08T19:33:54.893Z,-9.44
2022-12-08T19:36:23.900Z,-9.53
2022-12-08T19:39:08.947Z,-9.92
2022-12-08T19:41:56.149Z,-9.70
2022-12-08T19:44:43.814Z,-9.66
2022-12-08T19:47:15.679Z,-9.59
2022-12-08T19:49:43.614Z,-9.35
2022-12-08T19:52:11.525Z,-9.76
2022-12-08T19:54:39.544Z,-9.41
2022-12-08T19:57:08.815Z,-9.36
2022-12-08T19:59:36.742Z,-9.87
2022-12-08T20:02:05.311Z,-9.31
2022-12-08T20:04:33.370Z,-9.11
2022-12-08T20:07:01.258Z,-9.37
2022-12-08T20:09:29.308Z,-9.27
2022-12-08T20:11:57.164Z,-9.22
2022-12-08T20:14:26.417Z,-8.97
2022-12-08T20:16:54.689Z,-8.93
2022-12-08T20:19:22.638Z,-8.91
2022-12-08T20:21:50.505Z,-8.75
2022-12-08T20:24:18.801Z,-9.06
2022-12-08T20:26:46.826Z,-8.61
2022-12-08T20:29:16.979Z,-8.78
2022-12-08T20:31:46.736Z,-8.67
2022-12-08T20:34:16.178Z,-8.75
2022-12-08T20:36:44.261Z,-8.41
2022-12-08T20:39:13.760Z,-8.45
2022-12-08T20:41:41.734Z,-8.65
2022-12-08T20:44:09.999Z,-9.02
2022-12-08T20:46:38.590Z,-8.70
2022-12-08T20:49:07.998Z,-8.69
2022-12-08T20:51:36.440Z,-8.78
2022-12-08T20:54:05.814Z,-8.68
2022-12-08T20:56:33.873Z,-9.06
2022-12-08T20:59:02.351Z,-8.61
2022-12-08T21:01:30.685Z,-8.49
2022-12-08T21:03:59.728Z,-8.14
2022-12-08T21:06:29.658Z,-8.43
2022-12-08T21:08:58.070Z,-8.69
2022-12-08T21:11:26.184Z,-8.58
2022-12-08T21:13:54.080Z,-8.56
2022-12-08T21:16:22.554Z,-8.57
2022-12-08T21:18:50.555Z,-8.45
2022-12-08T21:21:18.799Z,-8.40
2022-12-08T21:23:48.456Z,-8.57
2022-12-08T21:26:18.156Z,-8.72
2022-12-08T21:28:46.728Z,-7.90
2022-12-08T21:31:16.807Z,-8.00
2022-12-08T21:33:45.113Z,-7.86
2022-12-08T21:36:15.045Z,-8.05
2022-12-08T21:38:44.225Z,-8.03
2022-12-08T21:41:16.292Z,-7.86
2022-12-08T21:43:44.424Z,-8.36
2022-12-08T21:46:17.451Z,-8.21
2022-12-08T21:48:45.472Z,-7.59
2022-12-08T21:51:13.610Z,-8.10
2022-12-08T21:53:41.720Z,-8.03
2022-12-08T21:56:10.405Z,-7.76
2022-12-08T21:58:40.287Z,-8.02
2022-12-08T22:01:08.944Z,-7.87
2022-12-08T22:03:37.804Z,-7.62
2022-12-08T22:06:07.161Z,-7.89
2022-12-08T22:08:35.508Z,-8.17
2022-12-08T22:11:03.850Z,-8.29
2022-12-08T22:13:32.074Z,-7.83
2022-12-08T22:16:03.684Z,-8.04
2022-12-08T22:18:31.780Z,-7.79
2022-12-08T22:20:59.827Z,-8.11
2022-12-08T22:23:29.642Z,-7.84
2022-12-08T22:25:59.211Z,-8.18
2022-12-08T22:28:27.578Z,-7.81
2022-12-08T22:30:56.196Z,-7.72
2022-12-08T22:33:25.781Z,-8.14
2022-12-08T22:35:58.200Z,-8.17
2022-12-08T22:38:26.493Z,-8.45
2022-12-08T22:40:54.822Z,-7.87
2022-12-08T22:43:23.867Z,-8.31
2022-12-08T22:45:51.948Z,-8.61
2022-12-08T22:48:19.934Z,-8.25
2022-12-08T22:50:49.723Z,-8.30
2022-12-08T22:53:17.794Z,-8.08
2022-12-08T22:55:46.610Z,-7.94
2022-12-08T22:58:15.006Z,-8.28
2022-12-08T23:00:43.269Z,-8.11
2022-12-08T23:03:11.231Z,-8.45
2022-12-08T23:05:41.223Z,-8.32
2022-12-08T23:08:14.837Z,-7.85
2022-12-08T23:10:43.974Z,-7.97
2022-12-08T23:13:12.931Z,-8.27
2022-12-08T23:15:41.529Z,-8.48
2022-12-08T23:18:13.463Z,-9.05
2022-12-08T23:20:41.828Z,-8.68
2022-12-08T23:23:11.081Z,-8.78
2022-12-08T23:25:41.385Z,-8.89
2022-12-08T23:28:09.389Z,-8.74
2022-12-08T23:30:37.545Z,-8.80
2022-12-08T23:33:05.856Z,-8.49
2022-12-08T23:35:34.120Z,-8.86
2022-12-08T23:38:01.968Z,-8.61
2022-12-08T23:40:31.435Z,-8.31
2022-12-08T23:42:59.347Z,-8.14
2022-12-08T23:45:27.218Z,-8.41
2022-12-08T23:47:55.289Z,-8.71
2022-12-08T23:50:24.021Z,-9.28
2022-12-08T23:52:51.881Z,-8.92
2022-12-08T23:55:19.936Z,-9.17
2022-12-08T23:57:49.260Z,-9.17
